sensor_id;sensor_type;location;lat;lon;timestamp;P1;durP1;ratioP1;P2;durP2;ratioP2
24897;SDS011;12957;49.434;8.684;2023-08-21T00:02:19;6.38;;;4.75;;
24897;SDS011;12957;49.434;8.684;2023-08-21T00:04:45;6.25;;;4.70;;
24897;SDS011;12957;49.434;8.684;2023-08-21T00:07:10;11.73;;;5.03;;
24897;SDS011;12957;49.434;8.684;2023-08-21T00:09:37;6.95;;;4.80;;
24897;SDS011;12957;49.434;8.684;2023-08-21T00:12:02;7.40;;;4.97;;
24897;SDS011;12957;49.434;8.684;2023-08-21T00:14:28;8.27;;;4.90;;
24897;SDS011;12957;49.434;8.684;2023-08-21T00:16:54;7.28;;;4.70;;
24897;SDS011;12957;49.434;8.684;2023-08-21T00:19:19;5.05;;;4.60;;
24897;SDS011;12957;49.434;8.684;2023-08-21T00:21:45;7.25;;;5.38;;
24897;SDS011;12957;49.434;8.684;2023-08-21T00:24:10;7.82;;;4.70;;
24897;SDS011;12957;49.434;8.684;2023-08-21T00:26:36;6.15;;;4.47;;
24897;SDS011;12957;49.434;8.684;2023-08-21T00:29:02;5.57;;;4.55;;
24897;SDS011;12957;49.434;8.684;2023-08-21T00:31:27;6.43;;;4.78;;
24897;SDS011;12957;49.434;8.684;2023-08-21T00:33:53;6.82;;;4.63;;
24897;SDS011;12957;49.434;8.684;2023-08-21T00:36:18;5.32;;;4.68;;
24897;SDS011;12957;49.434;8.684;2023-08-21T00:38:45;7.20;;;5.30;;
24897;SDS011;12957;49.434;8.684;2023-08-21T00:41:10;5.40;;;4.90;;
24897;SDS011;12957;49.434;8.684;2023-08-21T00:43:36;6.57;;;5.50;;
24897;SDS011;12957;49.434;8.684;2023-08-21T00:46:02;5.13;;;4.55;;
24897;SDS011;12957;49.434;8.684;2023-08-21T00:48:28;7.30;;;5.10;;
24897;SDS011;12957;49.434;8.684;2023-08-21T00:50:53;6.53;;;5.32;;
24897;SDS011;12957;49.434;8.684;2023-08-21T00:53:19;6.57;;;4.90;;
24897;SDS011;12957;49.434;8.684;2023-08-21T00:55:45;11.55;;;5.50;;
24897;SDS011;12957;49.434;8.684;2023-08-21T00:58:12;6.45;;;5.13;;
24897;SDS011;12957;49.434;8.684;2023-08-21T01:00:38;5.32;;;4.68;;
24897;SDS011;12957;49.434;8.684;2023-08-21T01:03:04;6.88;;;5.65;;
24897;SDS011;12957;49.434;8.684;2023-08-21T01:05:32;7.05;;;4.90;;
24897;SDS011;12957;49.434;8.684;2023-08-21T01:08:01;6.90;;;4.47;;
24897;SDS011;12957;49.434;8.684;2023-08-21T01:10:55;7.22;;;5.40;;
24897;SDS011;12957;49.434;8.684;2023-08-21T01:16:08;12.27;;;5.20;;
24897;SDS011;12957;49.434;8.684;2023-08-21T01:18:35;6.15;;;4.97;;
24897;SDS011;12957;49.434;8.684;2023-08-21T01:21:02;8.65;;;4.95;;
24897;SDS011;12957;49.434;8.684;2023-08-21T01:23:33;5.65;;;5.07;;
24897;SDS011;12957;49.434;8.684;2023-08-21T01:25:58;8.30;;;5.07;;
24897;SDS011;12957;49.434;8.684;2023-08-21T01:28:24;8.02;;;4.90;;
24897;SDS011;12957;49.434;8.684;2023-08-21T01:30:50;5.68;;;4.55;;
24897;SDS011;12957;49.434;8.684;2023-08-21T01:33:16;6.90;;;4.78;;
24897;SDS011;12957;49.434;8.684;2023-08-21T01:35:42;7.13;;;4.78;;
24897;SDS011;12957;49.434;8.684;2023-08-21T01:38:08;6.15;;;4.65;;
24897;SDS011;12957;49.434;8.684;2023-08-21T01:40:33;6.53;;;5.00;;
24897;SDS011;12957;49.434;8.684;2023-08-21T01:42:59;7.10;;;5.03;;
24897;SDS011;12957;49.434;8.684;2023-08-21T01:45:24;5.60;;;4.85;;
24897;SDS011;12957;49.434;8.684;2023-08-21T01:47:52;8.05;;;5.20;;
24897;SDS011;12957;49.434;8.684;2023-08-21T01:50:18;4.85;;;4.35;;
24897;SDS011;12957;49.434;8.684;2023-08-21T01:52:43;5.05;;;4.28;;
24897;SDS011;12957;49.434;8.684;2023-08-21T01:55:09;9.02;;;4.47;;
24897;SDS011;12957;49.434;8.684;2023-08-21T01:57:35;7.50;;;5.10;;
24897;SDS011;12957;49.434;8.684;2023-08-21T02:00:01;10.00;;;4.95;;
24897;SDS011;12957;49.434;8.684;2023-08-21T02:02:31;6.53;;;4.68;;
24897;SDS011;12957;49.434;8.684;2023-08-21T02:04:56;9.23;;;4.85;;
24897;SDS011;12957;49.434;8.684;2023-08-21T02:07:22;7.22;;;4.82;;
24897;SDS011;12957;49.434;8.684;2023-08-21T02:09:47;7.25;;;4.97;;
24897;SDS011;12957;49.434;8.684;2023-08-21T02:12:13;6.20;;;5.00;;
24897;SDS011;12957;49.434;8.684;2023-08-21T02:14:38;6.68;;;4.75;;
24897;SDS011;12957;49.434;8.684;2023-08-21T02:17:04;5.35;;;4.85;;
24897;SDS011;12957;49.434;8.684;2023-08-21T02:19:31;6.47;;;4.60;;
24897;SDS011;12957;49.434;8.684;2023-08-21T02:21:56;6.57;;;5.00;;
24897;SDS011;12957;49.434;8.684;2023-08-21T02:24:22;7.50;;;4.70;;
24897;SDS011;12957;49.434;8.684;2023-08-21T02:26:47;9.25;;;4.80;;
24897;SDS011;12957;49.434;8.684;2023-08-21T02:29:12;5.80;;;4.82;;
24897;SDS011;12957;49.434;8.684;2023-08-21T02:31:38;5.53;;;4.70;;
24897;SDS011;12957;49.434;8.684;2023-08-21T02:34:03;7.63;;;4.90;;
24897;SDS011;12957;49.434;8.684;2023-08-21T02:36:29;5.70;;;5.10;;
24897;SDS011;12957;49.434;8.684;2023-08-21T02:38:55;5.97;;;4.80;;
24897;SDS011;12957;49.434;8.684;2023-08-21T02:41:20;11.55;;;4.97;;
24897;SDS011;12957;49.434;8.684;2023-08-21T02:43:46;9.77;;;5.50;;
24897;SDS011;12957;49.434;8.684;2023-08-21T02:46:11;6.38;;;4.45;;
24897;SDS011;12957;49.434;8.684;2023-08-21T02:48:37;5.70;;;4.60;;
24897;SDS011;12957;49.434;8.684;2023-08-21T02:51:02;6.10;;;4.97;;
24897;SDS011;12957;49.434;8.684;2023-08-21T02:53:28;7.72;;;5.00;;
24897;SDS011;12957;49.434;8.684;2023-08-21T02:55:54;6.47;;;5.57;;
24897;SDS011;12957;49.434;8.684;2023-08-21T02:58:20;8.55;;;5.05;;
24897;SDS011;12957;49.434;8.684;2023-08-21T03:00:45;9.20;;;4.88;;
24897;SDS011;12957;49.434;8.684;2023-08-21T03:03:11;5.43;;;4.93;;
24897;SDS011;12957;49.434;8.684;2023-08-21T03:05:36;5.47;;;4.85;;
24897;SDS011;12957;49.434;8.684;2023-08-21T03:08:02;5.22;;;4.72;;
24897;SDS011;12957;49.434;8.684;2023-08-21T03:10:28;5.25;;;4.65;;
24897;SDS011;12957;49.434;8.684;2023-08-21T03:12:58;11.50;;;5.13;;
24897;SDS011;12957;49.434;8.684;2023-08-21T03:15:23;6.38;;;5.10;;
24897;SDS011;12957;49.434;8.684;2023-08-21T03:17:49;6.65;;;5.47;;
24897;SDS011;12957;49.434;8.684;2023-08-21T03:20:14;8.82;;;5.70;;
24897;SDS011;12957;49.434;8.684;2023-08-21T03:22:41;8.13;;;5.70;;
24897;SDS011;12957;49.434;8.684;2023-08-21T03:25:06;7.05;;;5.43;;
24897;SDS011;12957;49.434;8.684;2023-08-21T03:27:32;6.75;;;5.15;;
24897;SDS011;12957;49.434;8.684;2023-08-21T03:29:57;8.35;;;5.32;;
24897;SDS011;12957;49.434;8.684;2023-08-21T03:32:26;5.90;;;4.97;;
24897;SDS011;12957;49.434;8.684;2023-08-21T03:34:51;8.50;;;5.20;;
24897;SDS011;12957;49.434;8.684;2023-08-21T03:37:16;5.32;;;4.80;;
24897;SDS011;12957;49.434;8.684;2023-08-21T03:39:42;6.10;;;5.50;;
24897;SDS011;12957;49.434;8.684;2023-08-21T03:42:08;11.98;;;5.40;;
24897;SDS011;12957;49.434;8.684;2023-08-21T03:44:33;6.18;;;5.30;;
24897;SDS011;12957;49.434;8.684;2023-08-21T03:46:59;7.07;;;5.97;;
24897;SDS011;12957;49.434;8.684;2023-08-21T03:49:25;7.25;;;5.63;;
24897;SDS011;12957;49.434;8.684;2023-08-21T03:51:50;6.70;;;5.60;;
24897;SDS011;12957;49.434;8.684;2023-08-21T03:54:16;7.40;;;5.28;;
24897;SDS011;12957;49.434;8.684;2023-08-21T03:56:41;6.57;;;5.70;;
24897;SDS011;12957;49.434;8.684;2023-08-21T03:59:07;11.05;;;6.00;;
24897;SDS011;12957;49.434;8.684;2023-08-21T04:01:32;7.05;;;5.88;;
24897;SDS011;12957;49.434;8.684;2023-08-21T04:04:00;8.02;;;5.35;;
24897;SDS011;12957;49.434;8.684;2023-08-21T04:06:25;6.43;;;5.25;;
24897;SDS011;12957;49.434;8.684;2023-08-21T04:08:50;6.30;;;5.70;;
24897;SDS011;12957;49.434;8.684;2023-08-21T04:11:16;9.07;;;5.63;;
24897;SDS011;12957;49.434;8.684;2023-08-21T04:13:42;6.40;;;5.80;;
24897;SDS011;12957;49.434;8.684;2023-08-21T04:16:07;7.57;;;6.13;;
24897;SDS011;12957;49.434;8.684;2023-08-21T04:18:33;7.45;;;6.07;;
24897;SDS011;12957;49.434;8.684;2023-08-21T04:21:01;10.10;;;5.85;;
24897;SDS011;12957;49.434;8.684;2023-08-21T04:23:27;6.28;;;5.47;;
24897;SDS011;12957;49.434;8.684;2023-08-21T04:25:52;6.55;;;5.60;;
24897;SDS011;12957;49.434;8.684;2023-08-21T04:28:18;8.57;;;6.07;;
24897;SDS011;12957;49.434;8.684;2023-08-21T04:30:43;9.25;;;5.80;;
24897;SDS011;12957;49.434;8.684;2023-08-21T04:33:09;7.15;;;5.85;;
24897;SDS011;12957;49.434;8.684;2023-08-21T04:35:38;7.40;;;5.68;;
24897;SDS011;12957;49.434;8.684;2023-08-21T04:38:03;11.63;;;6.55;;
24897;SDS011;12957;49.434;8.684;2023-08-21T04:40:29;10.52;;;6.20;;
24897;SDS011;12957;49.434;8.684;2023-08-21T04:42:54;7.18;;;5.93;;
24897;SDS011;12957;49.434;8.684;2023-08-21T04:45:20;7.40;;;5.88;;
24897;SDS011;12957;49.434;8.684;2023-08-21T04:47:45;6.32;;;5.72;;
24897;SDS011;12957;49.434;8.684;2023-08-21T04:50:11;5.88;;;5.30;;
24897;SDS011;12957;49.434;8.684;2023-08-21T04:52:37;7.10;;;5.53;;
24897;SDS011;12957;49.434;8.684;2023-08-21T04:55:02;8.35;;;5.88;;
24897;SDS011;12957;49.434;8.684;2023-08-21T04:57:28;7.93;;;5.15;;
24897;SDS011;12957;49.434;8.684;2023-08-21T04:59:54;8.55;;;5.80;;
24897;SDS011;12957;49.434;8.684;2023-08-21T05:02:19;7.50;;;5.70;;
24897;SDS011;12957;49.434;8.684;2023-08-21T05:04:44;6.50;;;5.40;;
24897;SDS011;12957;49.434;8.684;2023-08-21T05:07:10;11.65;;;6.03;;
24897;SDS011;12957;49.434;8.684;2023-08-21T05:09:36;9.13;;;5.85;;
24897;SDS011;12957;49.434;8.684;2023-08-21T05:12:01;6.00;;;5.35;;
24897;SDS011;12957;49.434;8.684;2023-08-21T05:14:27;6.20;;;5.60;;
24897;SDS011;12957;49.434;8.684;2023-08-21T05:16:52;6.57;;;5.18;;
24897;SDS011;12957;49.434;8.684;2023-08-21T05:19:18;8.77;;;5.93;;
24897;SDS011;12957;49.434;8.684;2023-08-21T05:21:44;6.47;;;5.82;;
24897;SDS011;12957;49.434;8.684;2023-08-21T05:24:10;8.90;;;6.50;;
24897;SDS011;12957;49.434;8.684;2023-08-21T05:26:36;10.63;;;6.05;;
24897;SDS011;12957;49.434;8.684;2023-08-21T05:29:04;7.05;;;6.35;;
24897;SDS011;12957;49.434;8.684;2023-08-21T05:31:30;8.52;;;6.82;;
24897;SDS011;12957;49.434;8.684;2023-08-21T05:34:01;8.43;;;6.05;;
24897;SDS011;12957;49.434;8.684;2023-08-21T05:36:28;6.65;;;5.68;;
24897;SDS011;12957;49.434;8.684;2023-08-21T05:38:56;8.80;;;5.82;;
24897;SDS011;12957;49.434;8.684;2023-08-21T05:41:21;8.40;;;6.13;;
24897;SDS011;12957;49.434;8.684;2023-08-21T05:43:47;8.32;;;5.20;;
24897;SDS011;12957;49.434;8.684;2023-08-21T05:46:14;6.40;;;4.93;;
24897;SDS011;12957;49.434;8.684;2023-08-21T05:48:39;7.50;;;5.40;;
24897;SDS011;12957;49.434;8.684;2023-08-21T05:51:05;7.55;;;4.68;;
24897;SDS011;12957;49.434;8.684;2023-08-21T05:53:30;5.95;;;4.63;;
24897;SDS011;12957;49.434;8.684;2023-08-21T05:55:57;9.07;;;4.95;;
24897;SDS011;12957;49.434;8.684;2023-08-21T05:58:23;8.90;;;4.50;;
24897;SDS011;12957;49.434;8.684;2023-08-21T06:00:48;8.82;;;5.20;;
24897;SDS011;12957;49.434;8.684;2023-08-21T06:03:14;6.82;;;4.40;;
24897;SDS011;12957;49.434;8.684;2023-08-21T06:05:39;8.50;;;4.90;;
24897;SDS011;12957;49.434;8.684;2023-08-21T06:08:05;5.35;;;4.50;;
24897;SDS011;12957;49.434;8.684;2023-08-21T06:10:31;7.03;;;4.38;;
24897;SDS011;12957;49.434;8.684;2023-08-21T06:12:56;6.30;;;4.38;;
24897;SDS011;12957;49.434;8.684;2023-08-21T06:15:22;9.27;;;5.20;;
24897;SDS011;12957;49.434;8.684;2023-08-21T06:17:47;5.65;;;4.60;;
24897;SDS011;12957;49.434;8.684;2023-08-21T06:20:13;8.25;;;4.63;;
24897;SDS011;12957;49.434;8.684;2023-08-21T06:22:40;6.75;;;5.03;;
24897;SDS011;12957;49.434;8.684;2023-08-21T06:25:07;8.65;;;4.30;;
24897;SDS011;12957;49.434;8.684;2023-08-21T06:27:33;6.22;;;4.75;;
24897;SDS011;12957;49.434;8.684;2023-08-21T06:29:59;5.38;;;4.75;;
24897;SDS011;12957;49.434;8.684;2023-08-21T06:32:24;5.68;;;4.75;;
24897;SDS011;12957;49.434;8.684;2023-08-21T06:34:50;5.00;;;4.50;;
24897;SDS011;12957;49.434;8.684;2023-08-21T06:37:16;7.03;;;5.40;;
24897;SDS011;12957;49.434;8.684;2023-08-21T06:39:47;7.05;;;5.72;;
24897;SDS011;12957;49.434;8.684;2023-08-21T06:42:13;6.15;;;5.18;;
24897;SDS011;12957;49.434;8.684;2023-08-21T06:44:39;11.30;;;5.30;;
24897;SDS011;12957;49.434;8.684;2023-08-21T06:47:05;6.32;;;5.43;;
24897;SDS011;12957;49.434;8.684;2023-08-21T06:49:30;10.35;;;4.88;;
24897;SDS011;12957;49.434;8.684;2023-08-21T06:51:56;7.85;;;5.40;;
24897;SDS011;12957;49.434;8.684;2023-08-21T06:54:24;8.70;;;5.30;;
24897;SDS011;12957;49.434;8.684;2023-08-21T06:56:49;6.18;;;5.13;;
24897;SDS011;12957;49.434;8.684;2023-08-21T06:59:15;4.47;;;4.10;;
24897;SDS011;12957;49.434;8.684;2023-08-21T07:01:40;10.27;;;5.47;;
24897;SDS011;12957;49.434;8.684;2023-08-21T07:04:06;6.43;;;4.60;;
24897;SDS011;12957;49.434;8.684;2023-08-21T07:06:31;5.22;;;4.82;;
24897;SDS011;12957;49.434;8.684;2023-08-21T07:08:57;13.82;;;5.78;;
24897;SDS011;12957;49.434;8.684;2023-08-21T07:11:23;9.55;;;4.95;;
24897;SDS011;12957;49.434;8.684;2023-08-21T07:13:48;6.60;;;4.65;;
24897;SDS011;12957;49.434;8.684;2023-08-21T07:16:16;4.95;;;4.45;;
24897;SDS011;12957;49.434;8.684;2023-08-21T07:18:41;11.85;;;5.40;;
24897;SDS011;12957;49.434;8.684;2023-08-21T07:21:07;8.15;;;5.07;;
24897;SDS011;12957;49.434;8.684;2023-08-21T07:23:32;7.75;;;5.50;;
24897;SDS011;12957;49.434;8.684;2023-08-21T07:25:58;6.68;;;4.85;;
24897;SDS011;12957;49.434;8.684;2023-08-21T07:28:24;6.40;;;4.53;;
24897;SDS011;12957;49.434;8.684;2023-08-21T07:30:56;12.75;;;6.03;;
24897;SDS011;12957;49.434;8.684;2023-08-21T07:33:22;7.30;;;5.07;;
24897;SDS011;12957;49.434;8.684;2023-08-21T07:35:56;9.75;;;5.30;;
24897;SDS011;12957;49.434;8.684;2023-08-21T07:38:25;8.40;;;4.78;;
24897;SDS011;12957;49.434;8.684;2023-08-21T07:40:51;12.93;;;5.72;;
24897;SDS011;12957;49.434;8.684;2023-08-21T07:43:17;10.20;;;5.82;;
24897;SDS011;12957;49.434;8.684;2023-08-21T07:45:42;8.35;;;5.45;;
24897;SDS011;12957;49.434;8.684;2023-08-21T07:48:08;8.45;;;5.30;;
24897;SDS011;12957;49.434;8.684;2023-08-21T07:50:34;9.13;;;5.78;;
24897;SDS011;12957;49.434;8.684;2023-08-21T07:52:59;5.53;;;4.75;;
24897;SDS011;12957;49.434;8.684;2023-08-21T07:55:25;7.70;;;5.35;;
24897;SDS011;12957;49.434;8.684;2023-08-21T07:57:50;12.00;;;5.22;;
24897;SDS011;12957;49.434;8.684;2023-08-21T08:00:16;6.65;;;5.78;;
24897;SDS011;12957;49.434;8.684;2023-08-21T08:02:41;9.07;;;5.07;;
24897;SDS011;12957;49.434;8.684;2023-08-21T08:05:08;7.22;;;5.40;;
24897;SDS011;12957;49.434;8.684;2023-08-21T08:07:34;7.40;;;5.15;;
24897;SDS011;12957;49.434;8.684;2023-08-21T08:10:02;6.85;;;5.47;;
24897;SDS011;12957;49.434;8.684;2023-08-21T08:12:27;7.47;;;5.00;;
24897;SDS011;12957;49.434;8.684;2023-08-21T08:14:53;12.95;;;5.03;;
24897;SDS011;12957;49.434;8.684;2023-08-21T08:17:18;6.90;;;5.18;;
24897;SDS011;12957;49.434;8.684;2023-08-21T08:19:44;10.85;;;5.45;;
24897;SDS011;12957;49.434;8.684;2023-08-21T08:22:09;10.77;;;4.65;;
24897;SDS011;12957;49.434;8.684;2023-08-21T08:24:35;10.40;;;5.50;;
24897;SDS011;12957;49.434;8.684;2023-08-21T08:27:00;7.15;;;5.70;;
24897;SDS011;12957;49.434;8.684;2023-08-21T08:29:26;5.82;;;5.25;;
24897;SDS011;12957;49.434;8.684;2023-08-21T08:31:55;9.13;;;5.63;;
24897;SDS011;12957;49.434;8.684;2023-08-21T08:34:20;8.23;;;5.45;;
24897;SDS011;12957;49.434;8.684;2023-08-21T08:36:46;7.65;;;5.05;;
24897;SDS011;12957;49.434;8.684;2023-08-21T08:39:11;7.10;;;5.45;;
24897;SDS011;12957;49.434;8.684;2023-08-21T08:41:43;10.20;;;5.70;;
24897;SDS011;12957;49.434;8.684;2023-08-21T08:44:13;7.93;;;5.78;;
24897;SDS011;12957;49.434;8.684;2023-08-21T08:46:40;8.63;;;5.82;;
24897;SDS011;12957;49.434;8.684;2023-08-21T08:49:05;11.88;;;5.88;;
24897;SDS011;12957;49.434;8.684;2023-08-21T08:51:31;7.30;;;5.28;;
24897;SDS011;12957;49.434;8.684;2023-08-21T08:53:58;8.32;;;5.22;;
24897;SDS011;12957;49.434;8.684;2023-08-21T08:56:24;6.53;;;5.35;;
24897;SDS011;12957;49.434;8.684;2023-08-21T08:58:49;9.02;;;4.97;;
24897;SDS011;12957;49.434;8.684;2023-08-21T09:01:15;9.43;;;5.63;;
24897;SDS011;12957;49.434;8.684;2023-08-21T09:03:41;7.20;;;5.53;;
24897;SDS011;12957;49.434;8.684;2023-08-21T09:06:06;6.07;;;5.40;;
24897;SDS011;12957;49.434;8.684;2023-08-21T09:08:32;6.65;;;5.03;;
24897;SDS011;12957;49.434;8.684;2023-08-21T09:11:00;8.27;;;4.90;;
24897;SDS011;12957;49.434;8.684;2023-08-21T09:13:26;9.48;;;5.32;;
24897;SDS011;12957;49.434;8.684;2023-08-21T09:15:55;6.30;;;4.93;;
24897;SDS011;12957;49.434;8.684;2023-08-21T09:18:21;7.88;;;4.85;;
24897;SDS011;12957;49.434;8.684;2023-08-21T09:20:46;7.07;;;4.68;;
24897;SDS011;12957;49.434;8.684;2023-08-21T09:23:17;8.27;;;4.47;;
24897;SDS011;12957;49.434;8.684;2023-08-21T09:25:43;5.03;;;4.47;;
24897;SDS011;12957;49.434;8.684;2023-08-21T09:28:11;8.93;;;4.45;;
24897;SDS011;12957;49.434;8.684;2023-08-21T09:30:44;11.43;;;4.93;;
24897;SDS011;12957;49.434;8.684;2023-08-21T09:33:11;8.77;;;5.32;;
24897;SDS011;12957;49.434;8.684;2023-08-21T09:35:36;6.07;;;4.40;;
24897;SDS011;12957;49.434;8.684;2023-08-21T09:38:02;4.82;;;4.38;;
24897;SDS011;12957;49.434;8.684;2023-08-21T09:40:28;5.30;;;4.53;;
24897;SDS011;12957;49.434;8.684;2023-08-21T09:42:54;10.70;;;4.70;;
24897;SDS011;12957;49.434;8.684;2023-08-21T09:45:21;6.07;;;4.47;;
24897;SDS011;12957;49.434;8.684;2023-08-21T09:47:47;6.55;;;4.60;;
24897;SDS011;12957;49.434;8.684;2023-08-21T09:50:13;5.78;;;4.80;;
24897;SDS011;12957;49.434;8.684;2023-08-21T09:52:40;9.25;;;4.75;;
24897;SDS011;12957;49.434;8.684;2023-08-21T09:55:06;8.35;;;4.53;;
24897;SDS011;12957;49.434;8.684;2023-08-21T09:57:34;4.97;;;4.53;;
24897;SDS011;12957;49.434;8.684;2023-08-21T10:00:00;7.72;;;4.55;;
24897;SDS011;12957;49.434;8.684;2023-08-21T10:02:31;6.38;;;4.93;;
24897;SDS011;12957;49.434;8.684;2023-08-21T10:04:56;6.28;;;4.97;;
24897;SDS011;12957;49.434;8.684;2023-08-21T10:07:24;5.25;;;4.25;;
24897;SDS011;12957;49.434;8.684;2023-08-21T10:09:52;11.63;;;5.00;;
24897;SDS011;12957;49.434;8.684;2023-08-21T10:12:18;8.60;;;4.43;;
24897;SDS011;12957;49.434;8.684;2023-08-21T10:14:44;6.90;;;4.75;;
24897;SDS011;12957;49.434;8.684;2023-08-21T10:17:10;5.30;;;4.28;;
24897;SDS011;12957;49.434;8.684;2023-08-21T10:19:35;4.72;;;4.10;;
24897;SDS011;12957;49.434;8.684;2023-08-21T10:22:04;7.30;;;4.18;;
24897;SDS011;12957;49.434;8.684;2023-08-21T10:24:36;7.18;;;4.28;;
24897;SDS011;12957;49.434;8.684;2023-08-21T10:27:02;5.90;;;3.90;;
24897;SDS011;12957;49.434;8.684;2023-08-21T10:29:28;7.97;;;4.43;;
24897;SDS011;12957;49.434;8.684;2023-08-21T10:31:59;8.93;;;4.60;;
24897;SDS011;12957;49.434;8.684;2023-08-21T10:34:30;6.60;;;4.80;;
24897;SDS011;12957;49.434;8.684;2023-08-21T10:39:30;4.85;;;4.25;;
24897;SDS011;12957;49.434;8.684;2023-08-21T10:44:50;8.30;;;4.85;;
24897;SDS011;12957;49.434;8.684;2023-08-21T10:49:56;4.90;;;4.50;;
24897;SDS011;12957;49.434;8.684;2023-08-21T10:54:55;10.40;;;4.05;;
24897;SDS011;12957;49.434;8.684;2023-08-21T10:57:24;8.05;;;4.20;;
24897;SDS011;12957;49.434;8.684;2023-08-21T11:02:28;6.82;;;3.78;;
24897;SDS011;12957;49.434;8.684;2023-08-21T11:04:54;8.30;;;3.97;;
24897;SDS011;12957;49.434;8.684;2023-08-21T11:07:20;5.35;;;3.83;;
24897;SDS011;12957;49.434;8.684;2023-08-21T11:09:46;8.98;;;3.72;;
24897;SDS011;12957;49.434;8.684;2023-08-21T11:12:13;5.75;;;3.85;;
24897;SDS011;12957;49.434;8.684;2023-08-21T11:14:40;8.50;;;4.00;;
24897;SDS011;12957;49.434;8.684;2023-08-21T11:17:06;5.65;;;4.00;;
24897;SDS011;12957;49.434;8.684;2023-08-21T11:19:34;5.95;;;3.72;;
24897;SDS011;12957;49.434;8.684;2023-08-21T11:22:00;5.40;;;3.90;;
24897;SDS011;12957;49.434;8.684;2023-08-21T11:24:48;4.53;;;3.80;;
24897;SDS011;12957;49.434;8.684;2023-08-21T11:27:17;6.07;;;3.83;;
24897;SDS011;12957;49.434;8.684;2023-08-21T11:29:46;4.90;;;4.00;;
24897;SDS011;12957;49.434;8.684;2023-08-21T11:34:41;4.78;;;3.88;;
24897;SDS011;12957;49.434;8.684;2023-08-21T11:37:07;7.75;;;3.97;;
24897;SDS011;12957;49.434;8.684;2023-08-21T11:39:43;7.00;;;4.40;;
24897;SDS011;12957;49.434;8.684;2023-08-21T11:42:14;5.10;;;3.67;;
24897;SDS011;12957;49.434;8.684;2023-08-21T11:44:58;6.53;;;4.40;;
24897;SDS011;12957;49.434;8.684;2023-08-21T11:47:29;9.55;;;4.15;;
24897;SDS011;12957;49.434;8.684;2023-08-21T11:49:56;4.65;;;4.13;;
24897;SDS011;12957;49.434;8.684;2023-08-21T11:52:46;5.20;;;4.15;;
24897;SDS011;12957;49.434;8.684;2023-08-21T11:55:12;6.38;;;4.30;;
24897;SDS011;12957;49.434;8.684;2023-08-21T11:57:48;7.57;;;4.28;;
24897;SDS011;12957;49.434;8.684;2023-08-21T12:00:14;7.50;;;4.03;;
24897;SDS011;12957;49.434;8.684;2023-08-21T12:02:43;4.70;;;4.07;;
24897;SDS011;12957;49.434;8.684;2023-08-21T12:05:14;6.55;;;4.00;;
24897;SDS011;12957;49.434;8.684;2023-08-21T12:07:39;4.13;;;3.80;;
24897;SDS011;12957;49.434;8.684;2023-08-21T12:10:05;7.40;;;4.40;;
24897;SDS011;12957;49.434;8.684;2023-08-21T12:12:31;5.28;;;4.43;;
24897;SDS011;12957;49.434;8.684;2023-08-21T12:14:57;5.32;;;3.75;;
24897;SDS011;12957;49.434;8.684;2023-08-21T12:17:22;7.45;;;4.28;;
24897;SDS011;12957;49.434;8.684;2023-08-21T12:19:53;5.43;;;4.30;;
24897;SDS011;12957;49.434;8.684;2023-08-21T12:22:18;7.50;;;4.30;;
24897;SDS011;12957;49.434;8.684;2023-08-21T12:24:44;4.35;;;3.92;;
24897;SDS011;12957;49.434;8.684;2023-08-21T12:27:10;8.10;;;4.40;;
24897;SDS011;12957;49.434;8.684;2023-08-21T12:29:35;7.20;;;4.25;;
24897;SDS011;12957;49.434;8.684;2023-08-21T12:32:01;8.77;;;4.88;;
24897;SDS011;12957;49.434;8.684;2023-08-21T12:34:27;5.72;;;4.30;;
24897;SDS011;12957;49.434;8.684;2023-08-21T12:36:53;9.18;;;4.25;;
24897;SDS011;12957;49.434;8.684;2023-08-21T12:39:18;7.22;;;4.35;;
24897;SDS011;12957;49.434;8.684;2023-08-21T12:41:44;8.00;;;4.22;;
24897;SDS011;12957;49.434;8.684;2023-08-21T12:44:10;4.70;;;4.15;;
24897;SDS011;12957;49.434;8.684;2023-08-21T12:46:36;4.55;;;4.15;;
24897;SDS011;12957;49.434;8.684;2023-08-21T12:49:02;7.93;;;4.80;;
24897;SDS011;12957;49.434;8.684;2023-08-21T12:51:29;6.70;;;4.18;;
24897;SDS011;12957;49.434;8.684;2023-08-21T12:53:54;4.50;;;4.10;;
24897;SDS011;12957;49.434;8.684;2023-08-21T12:56:20;10.20;;;4.25;;
24897;SDS011;12957;49.434;8.684;2023-08-21T12:58:48;9.10;;;4.43;;
24897;SDS011;12957;49.434;8.684;2023-08-21T13:01:14;7.22;;;4.28;;
24897;SDS011;12957;49.434;8.684;2023-08-21T13:03:45;10.38;;;4.25;;
24897;SDS011;12957;49.434;8.684;2023-08-21T13:06:11;5.05;;;3.63;;
24897;SDS011;12957;49.434;8.684;2023-08-21T13:08:37;5.80;;;3.95;;
24897;SDS011;12957;49.434;8.684;2023-08-21T13:11:03;4.78;;;3.65;;
24897;SDS011;12957;49.434;8.684;2023-08-21T13:13:30;8.02;;;3.85;;
24897;SDS011;12957;49.434;8.684;2023-08-21T13:15:55;5.00;;;3.92;;
24897;SDS011;12957;49.434;8.684;2023-08-21T13:18:21;7.53;;;4.00;;
24897;SDS011;12957;49.434;8.684;2023-08-21T13:20:48;5.78;;;3.75;;
24897;SDS011;12957;49.434;8.684;2023-08-21T13:23:13;4.97;;;3.95;;
24897;SDS011;12957;49.434;8.684;2023-08-21T13:25:41;4.05;;;3.65;;
24897;SDS011;12957;49.434;8.684;2023-08-21T13:28:07;9.88;;;4.00;;
24897;SDS011;12957;49.434;8.684;2023-08-21T13:30:34;5.63;;;3.95;;
24897;SDS011;12957;49.434;8.684;2023-08-21T13:33:00;4.70;;;3.72;;
24897;SDS011;12957;49.434;8.684;2023-08-21T13:35:25;5.47;;;4.13;;
24897;SDS011;12957;49.434;8.684;2023-08-21T13:37:51;8.18;;;4.10;;
24897;SDS011;12957;49.434;8.684;2023-08-21T13:40:17;5.50;;;4.00;;
24897;SDS011;12957;49.434;8.684;2023-08-21T13:42:43;5.65;;;3.65;;
24897;SDS011;12957;49.434;8.684;2023-08-21T13:45:10;4.22;;;3.50;;
24897;SDS011;12957;49.434;8.684;2023-08-21T13:47:45;5.85;;;3.95;;
24897;SDS011;12957;49.434;8.684;2023-08-21T13:50:12;5.22;;;3.45;;
24897;SDS011;12957;49.434;8.684;2023-08-21T13:52:39;3.50;;;3.17;;
24897;SDS011;12957;49.434;8.684;2023-08-21T13:55:05;7.03;;;3.50;;
24897;SDS011;12957;49.434;8.684;2023-08-21T13:57:31;6.78;;;3.40;;
24897;SDS011;12957;49.434;8.684;2023-08-21T13:59:59;3.75;;;3.45;;
24897;SDS011;12957;49.434;8.684;2023-08-21T14:02:25;6.15;;;3.72;;
24897;SDS011;12957;49.434;8.684;2023-08-21T14:04:54;4.30;;;3.75;;
24897;SDS011;12957;49.434;8.684;2023-08-21T14:07:20;6.00;;;3.50;;
24897;SDS011;12957;49.434;8.684;2023-08-21T14:09:45;5.10;;;4.00;;
24897;SDS011;12957;49.434;8.684;2023-08-21T14:12:14;4.35;;;3.53;;
24897;SDS011;12957;49.434;8.684;2023-08-21T14:14:40;5.75;;;3.85;;
24897;SDS011;12957;49.434;8.684;2023-08-21T14:17:05;8.63;;;3.72;;
24897;SDS011;12957;49.434;8.684;2023-08-21T14:19:31;6.38;;;4.00;;
24897;SDS011;12957;49.434;8.684;2023-08-21T14:21:59;5.72;;;4.10;;
24897;SDS011;12957;49.434;8.684;2023-08-21T14:24:26;9.50;;;4.35;;
24897;SDS011;12957;49.434;8.684;2023-08-21T14:26:51;7.05;;;4.30;;
24897;SDS011;12957;49.434;8.684;2023-08-21T14:29:17;8.68;;;4.40;;
24897;SDS011;12957;49.434;8.684;2023-08-21T14:31:43;4.03;;;3.60;;
24897;SDS011;12957;49.434;8.684;2023-08-21T14:34:10;6.47;;;3.50;;
24897;SDS011;12957;49.434;8.684;2023-08-21T14:36:35;4.07;;;3.75;;
24897;SDS011;12957;49.434;8.684;2023-08-21T14:39:00;6.10;;;3.30;;
24897;SDS011;12957;49.434;8.684;2023-08-21T14:41:26;3.65;;;2.88;;
24897;SDS011;12957;49.434;8.684;2023-08-21T14:43:51;3.90;;;3.60;;
24897;SDS011;12957;49.434;8.684;2023-08-21T14:46:17;5.82;;;3.20;;
24897;SDS011;12957;49.434;8.684;2023-08-21T14:48:42;5.28;;;3.40;;
24897;SDS011;12957;49.434;8.684;2023-08-21T14:51:08;5.45;;;3.08;;
24897;SDS011;12957;49.434;8.684;2023-08-21T14:53:33;6.30;;;2.90;;
24897;SDS011;12957;49.434;8.684;2023-08-21T14:55:59;4.85;;;3.17;;
24897;SDS011;12957;49.434;8.684;2023-08-21T14:58:24;5.57;;;3.33;;
24897;SDS011;12957;49.434;8.684;2023-08-21T15:00:53;4.07;;;3.00;;